Time;durP1;ratioP1;P1;durP2;ratioP2;P2;SDS_P1;SDS_P2;PMS_P1;PMS_P2;Temp;Humidity;BMP_temperature;BMP_pressure;BME280_temperature;BME280_humidity;BME280_pressure;Samples;Min_cycle;Max_cycle;Signal;HPM_P1;HPM_P2
2021/11/20 00:01:17;;;;;;;6.47;2.80;;;12.00;99.90;;;;;;4998719;28;20306;-85
2021/11/20 00:03:45;;;;;;;6.47;3.33;;;12.00;99.90;;;;;;4992376;28;20526;-85
2021/11/20 00:06:15;;;;;;;11.20;2.90;;;12.10;99.90;;;;;;4990897;28;20294;-85
2021/11/20 00:08:40;;;;;;;8.20;2.77;;;12.10;99.90;;;;;;4997466;28;20304;-85
2021/11/20 00:11:08;;;;;;;8.50;2.47;;;12.10;99.90;;;;;;4998732;28;20656;-85
2021/11/20 00:13:35;;;;;;;5.30;2.10;;;12.10;99.90;;;;;;4992870;28;20286;-84
2021/11/20 00:16:04;;;;;;;4.67;2.03;;;12.10;99.90;;;;;;4995786;28;20228;-85
2021/11/20 00:18:31;;;;;;;4.73;2.43;;;12.10;99.90;;;;;;4997659;28;20346;-84
2021/11/20 00:21:02;;;;;;;2.47;2.27;;;12.00;99.90;;;;;;4992319;28;20228;-85
2021/11/20 00:23:41;;;;;;;10.20;3.20;;;12.10;99.90;;;;;;4993076;28;20648;-85
2021/11/20 00:26:11;;;;;;;9.17;2.80;;;12.10;99.90;;;;;;4994578;28;20326;-85
2021/11/20 00:29:11;;;;;;;2.53;2.33;;;12.10;99.90;;;;;;4994590;28;20699;-84
2021/11/20 00:31:43;;;;;;;8.07;2.63;;;12.10;99.90;;;;;;4992045;28;20318;-85
2021/11/20 00:34:15;;;;;;;6.03;2.57;;;12.10;99.90;;;;;;4997149;28;20587;-85
2021/11/20 00:36:42;;;;;;;10.50;3.03;;;12.00;99.90;;;;;;4993363;28;20688;-85
2021/11/20 00:39:11;;;;;;;7.40;2.57;;;12.10;99.90;;;;;;4992264;28;20223;-85
2021/11/20 00:41:38;;;;;;;4.33;2.93;;;12.00;99.90;;;;;;4993456;28;20184;-85
2021/11/20 00:44:04;;;;;;;10.70;3.70;;;12.00;99.90;;;;;;4995453;28;20214;-85
2021/11/20 00:46:31;;;;;;;9.47;2.00;;;12.00;99.90;;;;;;4990112;28;20216;-85
2021/11/20 00:48:58;;;;;;;7.37;2.13;;;12.00;99.90;;;;;;4996179;28;20230;-84
2021/11/20 00:51:27;;;;;;;2.37;1.73;;;12.00;99.90;;;;;;4995027;28;20689;-85
2021/11/20 00:53:54;;;;;;;7.40;1.80;;;12.00;99.90;;;;;;4998277;28;20574;-85
2021/11/20 00:56:22;;;;;;;1.60;1.07;;;11.90;99.90;;;;;;4978262;28;20407;-85
2021/11/20 00:58:48;;;;;;;9.93;2.47;;;11.90;99.90;;;;;;4998343;28;20222;-85
2021/11/20 01:01:19;;;;;;;8.83;2.30;;;11.90;99.90;;;;;;4995697;28;20215;-85
2021/11/20 01:03:45;;;;;;;9.97;2.67;;;11.90;99.90;;;;;;4993726;28;20231;-85
2021/11/20 01:06:11;;;;;;;6.73;1.87;;;11.90;99.90;;;;;;5000851;28;20227;-85
2021/11/20 01:08:40;;;;;;;4.30;2.60;;;11.90;99.90;;;;;;4993232;28;20726;-85
2021/11/20 01:11:32;;;;;;;6.33;1.93;;;11.90;99.90;;;;;;4993167;28;20207;-85
2021/11/20 01:14:00;;;;;;;2.50;2.17;;;11.90;99.90;;;;;;4991721;28;20223;-84
2021/11/20 01:16:27;;;;;;;8.30;3.33;;;11.90;99.90;;;;;;4991541;28;20224;-84
2021/11/20 01:18:54;;;;;;;2.93;2.30;;;11.90;99.90;;;;;;4995643;28;20306;-85
2021/11/20 01:21:20;;;;;;;5.73;2.60;;;11.90;99.90;;;;;;4991434;28;20230;-85
2021/11/20 01:23:47;;;;;;;8.67;3.37;;;11.80;99.90;;;;;;4995268;28;20192;-85
2021/11/20 01:26:14;;;;;;;3.77;2.47;;;11.90;99.90;;;;;;4989826;28;20478;-85
2021/11/20 01:28:43;;;;;;;5.00;2.03;;;11.90;99.90;;;;;;4976426;28;20223;-85
2021/11/20 01:31:12;;;;;;;3.70;2.00;;;11.80;99.90;;;;;;4996871;28;20223;-85
2021/11/20 01:33:39;;;;;;;2.77;2.17;;;11.80;99.90;;;;;;4990952;28;20798;-84
2021/11/20 01:36:07;;;;;;;5.03;1.93;;;11.80;99.90;;;;;;4990961;28;20223;-85
2021/11/20 01:38:34;;;;;;;6.33;3.13;;;11.80;99.90;;;;;;4995256;28;20192;-85
2021/11/20 01:41:00;;;;;;;8.80;2.70;;;11.80;99.90;;;;;;4980494;28;20192;-84
2021/11/20 01:43:26;;;;;;;3.80;2.37;;;11.80;99.90;;;;;;4976175;28;20943;-83
2021/11/20 01:46:02;;;;;;;3.83;2.50;;;11.80;99.90;;;;;;4994304;28;20219;-85
2021/11/20 01:48:40;;;;;;;8.60;2.70;;;11.80;99.90;;;;;;4994393;28;20231;-83
2021/11/20 01:51:39;;;;;;;7.23;2.93;;;11.80;99.90;;;;;;4991571;28;20227;-84
2021/11/20 01:54:05;;;;;;;16.73;2.90;;;11.80;99.90;;;;;;4992519;28;20231;-84
2021/11/20 01:56:56;;;;;;;9.77;2.30;;;11.70;99.90;;;;;;4994647;28;20196;-84
2021/11/20 01:59:30;;;;;;;8.70;3.53;;;11.70;99.90;;;;;;4990951;28;20269;-84
2021/11/20 02:02:15;;;;;;;6.87;1.93;;;11.70;99.90;;;;;;4993988;28;20215;-84
2021/11/20 02:05:07;;;;;;;3.10;2.23;;;11.70;99.90;;;;;;4994008;28;20716;-84
2021/11/20 02:07:40;;;;;;;6.33;2.57;;;11.60;99.90;;;;;;4994901;28;20219;-84
2021/11/20 02:10:27;;;;;;;8.60;3.80;;;11.60;99.90;;;;;;4991165;28;20251;-84
2021/11/20 02:13:10;;;;;;;5.80;3.93;;;11.50;99.90;;;;;;4994366;28;20238;-84
2021/11/20 02:15:40;;;;;;;3.43;2.23;;;11.40;99.90;;;;;;4989309;28;20306;-84
2021/11/20 02:18:08;;;;;;;18.00;3.30;;;11.40;99.90;;;;;;4992587;28;20216;-84
2021/11/20 02:20:50;;;;;;;5.40;2.83;;;11.40;99.90;;;;;;4994301;28;20191;-83
2021/11/20 02:23:16;;;;;;;6.10;2.63;;;11.40;99.90;;;;;;4992454;28;20211;-84
2021/11/20 02:25:42;;;;;;;3.80;2.30;;;11.50;99.90;;;;;;4993127;28;20689;-84
2021/11/20 02:28:08;;;;;;;4.50;3.60;;;11.50;99.90;;;;;;4994051;28;20259;-84
2021/11/20 02:30:37;;;;;;;3.87;3.37;;;11.50;99.90;;;;;;4991514;28;20281;-84
2021/11/20 02:33:10;;;;;;;4.07;3.03;;;11.50;99.90;;;;;;4992253;28;20235;-84
2021/11/20 02:35:46;;;;;;;3.70;2.93;;;11.50;99.90;;;;;;4990309;28;20218;-84
2021/11/20 02:38:18;;;;;;;3.70;2.50;;;11.50;99.90;;;;;;4995661;28;20234;-84
2021/11/20 02:40:44;;;;;;;10.13;3.93;;;11.40;99.90;;;;;;4992067;28;20230;-84
2021/11/20 02:43:11;;;;;;;8.03;2.40;;;11.40;99.90;;;;;;4996504;28;20307;-84
2021/11/20 02:45:45;;;;;;;5.27;3.77;;;11.40;99.90;;;;;;4998145;28;20217;-85
2021/11/20 02:48:11;;;;;;;12.63;3.20;;;11.50;99.90;;;;;;4992264;28;20218;-85
2021/11/20 02:51:00;;;;;;;6.07;3.17;;;11.50;99.90;;;;;;4991439;28;20204;-84
2021/11/20 02:53:34;;;;;;;2.87;2.60;;;11.50;99.90;;;;;;4993426;28;20211;-84
2021/11/20 02:55:59;;;;;;;5.03;3.13;;;11.50;99.90;;;;;;4992464;28;20250;-84
2021/11/20 02:58:28;;;;;;;2.70;2.50;;;11.50;99.90;;;;;;4976109;28;20258;-84
2021/11/20 03:01:01;;;;;;;12.77;2.73;;;11.40;99.90;;;;;;4958675;28;20215;-84
2021/11/20 03:03:27;;;;;;;4.60;3.20;;;11.50;99.90;;;;;;4984136;28;20303;-84
2021/11/20 03:05:52;;;;;;;16.77;3.50;;;11.40;99.90;;;;;;4999341;28;20234;-84
2021/11/20 03:08:18;;;;;;;12.60;2.57;;;11.50;99.90;;;;;;4995962;28;20235;-84
2021/11/20 03:10:44;;;;;;;3.47;1.87;;;11.50;99.90;;;;;;4993640;28;20215;-84
2021/11/20 03:13:15;;;;;;;8.10;3.67;;;11.60;99.90;;;;;;4993720;28;20231;-84
2021/11/20 03:15:41;;;;;;;6.73;3.03;;;11.70;99.90;;;;;;4997272;28;20223;-84
2021/11/20 03:18:07;;;;;;;5.27;3.57;;;11.70;99.90;;;;;;4994765;28;20353;-84
2021/11/20 03:20:33;;;;;;;5.37;2.87;;;11.70;99.90;;;;;;4995267;28;20617;-84
2021/11/20 03:23:13;;;;;;;3.53;2.93;;;11.70;99.90;;;;;;5010811;28;20203;-84
2021/11/20 03:25:39;;;;;;;3.70;2.50;;;11.70;99.90;;;;;;4998782;28;20265;-83
2021/11/20 03:28:05;;;;;;;4.60;2.63;;;11.70;99.90;;;;;;4998463;28;20254;-84
2021/11/20 03:30:31;;;;;;;4.97;3.40;;;11.70;99.90;;;;;;4993125;28;20262;-84
2021/11/20 03:32:57;;;;;;;8.63;4.00;;;11.80;99.90;;;;;;4997585;28;20242;-85
2021/11/20 03:35:24;;;;;;;8.83;3.90;;;11.80;99.90;;;;;;4994173;28;20211;-84
2021/11/20 03:37:52;;;;;;;7.77;4.00;;;11.80;99.90;;;;;;4979403;28;20228;-84
2021/11/20 03:40:19;;;;;;;5.97;3.60;;;11.80;99.90;;;;;;4987435;28;20211;-84
2021/11/20 03:42:45;;;;;;;8.97;3.20;;;11.80;99.90;;;;;;4995841;28;20227;-84
2021/11/20 03:45:11;;;;;;;4.43;3.03;;;11.80;99.90;;;;;;4996091;28;20219;-85
2021/11/20 03:47:37;;;;;;;5.77;3.27;;;11.80;99.90;;;;;;4993865;28;20231;-85
2021/11/20 03:50:05;;;;;;;10.63;5.20;;;11.70;99.90;;;;;;4980720;28;20196;-84
2021/11/20 03:52:30;;;;;;;5.37;4.20;;;11.70;99.90;;;;;;4995233;28;20318;-84
2021/11/20 03:54:56;;;;;;;4.97;3.87;;;11.70;99.90;;;;;;4991863;28;20333;-84
2021/11/20 03:57:22;;;;;;;4.97;3.23;;;11.60;99.90;;;;;;4992466;28;20298;-84
2021/11/20 03:59:49;;;;;;;9.87;4.10;;;11.60;99.90;;;;;;4997151;28;20668;-84
2021/11/20 04:02:15;;;;;;;5.70;2.90;;;11.60;99.90;;;;;;4995737;28;20258;-84
2021/11/20 04:04:41;;;;;;;9.07;3.77;;;11.60;99.90;;;;;;4993668;28;20228;-85
2021/11/20 04:07:07;;;;;;;9.23;3.27;;;11.60;99.90;;;;;;4992899;28;20220;-83
2021/11/20 04:09:33;;;;;;;2.60;2.40;;;11.70;99.90;;;;;;4993975;28;20247;-84
2021/11/20 04:11:59;;;;;;;3.60;3.17;;;11.70;99.90;;;;;;4997643;28;20212;-84
2021/11/20 04:14:26;;;;;;;21.93;3.43;;;11.80;99.90;;;;;;4995383;28;20771;-85
2021/11/20 04:16:53;;;;;;;4.73;3.47;;;11.80;99.90;;;;;;4985782;28;20593;-84
2021/11/20 04:19:18;;;;;;;11.17;2.80;;;11.80;99.90;;;;;;4993529;28;20513;-85
2021/11/20 04:21:45;;;;;;;6.70;3.73;;;11.80;99.90;;;;;;4997169;28;20227;-84
2021/11/20 04:24:12;;;;;;;5.00;2.23;;;11.80;99.90;;;;;;4993143;28;20517;-84
2021/11/20 04:26:38;;;;;;;5.53;2.43;;;11.80;99.90;;;;;;4992771;28;20233;-84
2021/11/20 04:29:04;;;;;;;7.80;3.13;;;11.80;99.90;;;;;;4994252;28;20184;-84
2021/11/20 04:31:30;;;;;;;5.13;3.43;;;11.80;99.90;;;;;;4995329;28;20220;-84
2021/11/20 04:33:57;;;;;;;4.07;3.00;;;11.80;99.90;;;;;;4995570;28;20231;-84
2021/11/20 04:36:24;;;;;;;15.83;3.87;;;11.90;99.90;;;;;;4992217;28;20307;-85
2021/11/20 04:38:50;;;;;;;6.77;3.37;;;11.90;99.90;;;;;;4993371;28;20223;-85
2021/11/20 04:41:16;;;;;;;5.87;2.70;;;11.90;99.90;;;;;;4994536;28;20192;-85
2021/11/20 04:43:44;;;;;;;14.37;3.50;;;11.90;99.90;;;;;;4981652;28;20226;-85
2021/11/20 04:46:13;;;;;;;4.20;2.47;;;12.00;99.90;;;;;;4994323;28;20224;-85
2021/11/20 04:48:39;;;;;;;8.30;3.67;;;12.00;99.90;;;;;;4992767;28;20254;-84
2021/11/20 04:51:06;;;;;;;9.17;5.03;;;12.00;99.90;;;;;;4990452;28;20230;-85
2021/11/20 04:53:35;;;;;;;4.43;2.87;;;12.00;99.90;;;;;;4986375;28;20219;-84
2021/11/20 04:56:03;;;;;;;9.87;4.37;;;12.00;99.90;;;;;;4993931;28;20196;-84
2021/11/20 04:58:30;;;;;;;7.87;5.80;;;12.10;99.90;;;;;;4992138;28;20224;-85
2021/11/20 05:00:57;;;;;;;7.47;4.20;;;12.10;99.90;;;;;;4975306;28;20904;-83
2021/11/20 05:03:24;;;;;;;6.87;4.47;;;12.10;99.90;;;;;;4975805;28;20692;-84
2021/11/20 05:05:52;;;;;;;7.23;4.67;;;12.10;99.90;;;;;;4991921;28;20188;-84
2021/11/20 05:08:20;;;;;;;9.90;4.87;;;12.20;99.90;;;;;;4999149;28;20234;-85
2021/11/20 05:10:48;;;;;;;5.37;3.37;;;12.20;99.90;;;;;;4992597;28;20320;-83
2021/11/20 05:13:14;;;;;;;3.63;2.73;;;12.10;99.90;;;;;;4990420;28;20242;-83
2021/11/20 05:15:42;;;;;;;6.30;4.30;;;12.10;99.90;;;;;;4994099;28;20315;-84
2021/11/20 05:18:08;;;;;;;12.07;6.30;;;12.10;99.90;;;;;;4994187;28;20281;-84
2021/11/20 05:20:35;;;;;;;7.10;3.23;;;12.10;99.90;;;;;;4990572;28;20816;-85
2021/11/20 05:23:00;;;;;;;8.03;4.30;;;12.10;99.90;;;;;;4994688;28;20192;-84
2021/11/20 05:25:27;;;;;;;6.33;3.97;;;12.10;99.90;;;;;;4990251;28;20709;-84
2021/11/20 05:27:53;;;;;;;4.93;3.40;;;12.10;99.90;;;;;;4993209;28;20215;-83
2021/11/20 05:30:28;;;;;;;9.40;5.00;;;12.20;99.90;;;;;;4999471;28;20208;-84
2021/11/20 05:32:55;;;;;;;18.20;4.40;;;12.20;99.90;;;;;;4990691;28;20318;-84
2021/11/20 05:35:22;;;;;;;7.40;4.03;;;12.20;99.90;;;;;;4993796;28;20207;-84
2021/11/20 05:37:48;;;;;;;9.53;5.23;;;12.20;99.90;;;;;;4991986;28;20250;-84
2021/11/20 05:40:15;;;;;;;10.43;5.73;;;12.20;99.90;;;;;;4996546;28;20219;-83
2021/11/20 05:42:43;;;;;;;7.23;4.20;;;12.30;99.90;;;;;;4995182;28;20227;-84
2021/11/20 05:45:09;;;;;;;11.50;4.17;;;12.30;99.90;;;;;;4993910;28;20345;-84
2021/11/20 05:47:35;;;;;;;5.63;4.43;;;12.30;99.90;;;;;;4991467;28;20477;-84
2021/11/20 05:50:03;;;;;;;6.53;4.93;;;12.30;99.90;;;;;;4976415;28;20295;-84
2021/11/20 05:52:29;;;;;;;8.63;5.43;;;12.30;99.90;;;;;;4989300;28;20332;-84
2021/11/20 05:54:56;;;;;;;8.97;5.03;;;12.30;99.90;;;;;;4992386;28;20248;-84
2021/11/20 05:57:23;;;;;;;11.60;4.70;;;12.30;99.90;;;;;;4990432;28;20229;-84
2021/11/20 05:59:48;;;;;;;5.50;4.40;;;12.30;99.90;;;;;;4990013;28;20212;-83
2021/11/20 06:02:15;;;;;;;8.20;5.60;;;12.30;99.90;;;;;;4992511;28;20235;-84
2021/11/20 06:04:41;;;;;;;15.80;5.90;;;12.30;99.90;;;;;;4995388;28;20277;-84
2021/11/20 06:07:11;;;;;;;13.33;5.60;;;12.30;99.90;;;;;;4990979;28;20234;-83
2021/11/20 06:09:40;;;;;;;7.80;4.33;;;12.30;99.90;;;;;;4973926;28;20239;-84
2021/11/20 06:12:08;;;;;;;6.80;4.53;;;12.30;99.90;;;;;;4975284;28;20246;-84
2021/11/20 06:14:34;;;;;;;8.73;4.40;;;12.40;99.90;;;;;;4990438;28;20636;-83
2021/11/20 06:17:00;;;;;;;6.57;4.07;;;12.40;99.90;;;;;;4993595;28;20215;-84
2021/11/20 06:19:26;;;;;;;7.33;4.33;;;12.40;99.90;;;;;;4989530;28;20544;-83
2021/11/20 06:21:52;;;;;;;5.00;3.87;;;12.40;99.90;;;;;;4989969;28;20218;-83
2021/11/20 06:24:19;;;;;;;9.37;4.93;;;12.40;99.90;;;;;;4989545;28;20352;-84
2021/11/20 06:26:47;;;;;;;10.10;4.50;;;12.40;99.90;;;;;;4973591;28;20666;-83
2021/11/20 06:29:14;;;;;;;7.57;4.97;;;12.40;99.90;;;;;;4994823;28;20349;-83
2021/11/20 06:31:40;;;;;;;7.47;4.87;;;12.40;99.90;;;;;;4993671;28;20220;-84
2021/11/20 06:34:06;;;;;;;6.43;4.47;;;12.40;99.90;;;;;;4992121;28;20720;-84
2021/11/20 06:36:32;;;;;;;5.13;3.60;;;12.40;99.90;;;;;;4989542;28;20235;-84
2021/11/20 06:38:58;;;;;;;7.33;4.90;;;12.40;99.90;;;;;;4990538;28;20220;-84
2021/11/20 06:41:25;;;;;;;14.67;5.67;;;12.40;99.90;;;;;;4993885;28;20196;-84
2021/11/20 06:43:51;;;;;;;8.23;4.93;;;12.40;99.90;;;;;;4992207;28;20234;-84
2021/11/20 06:46:18;;;;;;;7.77;5.23;;;12.40;99.90;;;;;;4992330;28;20275;-84
2021/11/20 06:48:44;;;;;;;8.97;4.40;;;12.40;99.90;;;;;;4992295;28;20219;-83
2021/11/20 06:51:10;;;;;;;7.63;4.87;;;12.40;99.90;;;;;;4991272;28;20222;-84
2021/11/20 06:53:38;;;;;;;6.77;4.93;;;12.40;99.90;;;;;;4989785;28;20222;-83
2021/11/20 06:56:04;;;;;;;11.23;4.50;;;12.40;99.90;;;;;;5011023;28;20245;-83
2021/11/20 07:01:13;;;;;;;7.87;5.17;;;12.40;99.90;;;;;;4992046;28;20306;-84
2021/11/20 07:03:43;;;;;;;11.53;6.73;;;12.40;99.90;;;;;;4987543;28;20740;-84
2021/11/20 07:06:23;;;;;;;6.57;4.30;;;12.40;99.90;;;;;;4989906;28;20222;-84
2021/11/20 07:08:52;;;;;;;7.03;4.53;;;12.40;99.90;;;;;;4993184;28;20717;-84
2021/11/20 07:11:19;;;;;;;9.23;3.87;;;12.50;99.90;;;;;;4995422;28;20202;-84
2021/11/20 07:13:45;;;;;;;11.97;4.97;;;12.50;99.90;;;;;;4993198;28;20231;-84
2021/11/20 07:16:12;;;;;;;7.30;5.23;;;12.50;99.90;;;;;;4993255;28;20717;-83
2021/11/20 07:18:40;;;;;;;9.50;5.30;;;12.50;99.90;;;;;;4992770;28;20314;-84
2021/11/20 07:21:06;;;;;;;9.13;5.23;;;12.50;99.90;;;;;;4993698;28;20310;-85
2021/11/20 07:23:33;;;;;;;7.13;4.90;;;12.50;99.90;;;;;;4993063;28;20234;-83
2021/11/20 07:25:59;;;;;;;9.60;5.30;;;12.50;99.90;;;;;;4993723;28;20223;-84
2021/11/20 07:28:26;;;;;;;11.93;5.93;;;12.50;99.90;;;;;;4991770;28;20228;-83
2021/11/20 07:30:52;;;;;;;8.57;5.93;;;12.50;99.90;;;;;;4990669;28;20211;-83
2021/11/20 07:33:18;;;;;;;12.70;5.03;;;12.50;99.90;;;;;;4992463;28;20235;-83
2021/11/20 07:35:51;;;;;;;7.27;5.83;;;12.40;99.90;;;;;;4993426;28;20188;-85
2021/11/20 07:38:22;;;;;;;8.50;5.50;;;12.50;99.90;;;;;;4989842;28;20211;-86
2021/11/20 07:40:48;;;;;;;5.17;3.70;;;12.40;99.90;;;;;;4992574;28;20285;-83
2021/11/20 07:43:15;;;;;;;5.00;3.57;;;12.40;99.90;;;;;;4990813;28;20227;-83
2021/11/20 07:45:41;;;;;;;7.37;4.27;;;12.40;99.90;;;;;;5000128;28;20298;-86
2021/11/20 07:48:14;;;;;;;11.57;3.67;;;12.40;99.90;;;;;;4990104;28;20232;-84
2021/11/20 07:50:41;;;;;;;16.50;4.23;;;12.40;99.90;;;;;;4994969;28;20195;-84
2021/11/20 07:53:07;;;;;;;7.43;4.40;;;12.40;99.90;;;;;;4995561;28;20299;-83
2021/11/20 07:55:34;;;;;;;9.77;4.07;;;12.40;99.90;;;;;;4995956;28;20338;-84
2021/11/20 07:58:00;;;;;;;8.20;3.77;;;12.40;99.90;;;;;;4996588;28;20227;-84
2021/11/20 08:00:27;;;;;;;7.10;3.90;;;12.40;99.90;;;;;;4995927;28;20466;-84
2021/11/20 08:02:53;;;;;;;20.53;5.37;;;12.40;99.90;;;;;;4996245;28;20322;-84
2021/11/20 08:05:20;;;;;;;7.33;4.17;;;12.40;99.90;;;;;;4997284;28;20249;-85
2021/11/20 08:07:45;;;;;;;9.60;6.00;;;12.40;99.90;;;;;;4995342;28;20215;-85
2021/11/20 08:10:15;;;;;;;9.57;5.40;;;12.40;99.90;;;;;;4990598;28;20243;-85
2021/11/20 08:12:42;;;;;;;7.00;4.70;;;12.40;99.90;;;;;;4995794;28;20232;-85
2021/11/20 08:15:08;;;;;;;7.77;4.77;;;12.40;99.90;;;;;;5003738;28;20523;-85
2021/11/20 08:17:34;;;;;;;8.27;5.33;;;12.40;99.90;;;;;;4994119;28;20183;-86
2021/11/20 08:20:00;;;;;;;6.63;4.90;;;12.40;99.90;;;;;;4996300;28;20184;-85
2021/11/20 08:22:26;;;;;;;13.57;5.10;;;12.40;99.90;;;;;;5010812;28;20247;-86
2021/11/20 08:24:52;;;;;;;6.27;4.90;;;12.40;99.90;;;;;;5014366;28;20220;-87
2021/11/20 08:27:18;;;;;;;8.63;4.67;;;12.40;99.90;;;;;;4996809;28;20266;-88
2021/11/20 08:29:44;;;;;;;8.20;4.63;;;12.40;99.90;;;;;;4995247;28;20680;-88
2021/11/20 08:32:10;;;;;;;11.23;4.43;;;12.40;99.90;;;;;;4996126;28;20200;-87
2021/11/20 08:34:40;;;;;;;6.40;4.10;;;12.40;99.90;;;;;;5002939;28;20227;-88
2021/11/20 08:37:07;;;;;;;6.00;3.90;;;12.50;99.90;;;;;;4995126;28;20227;-87
2021/11/20 08:39:33;;;;;;;5.93;4.27;;;12.50;99.90;;;;;;4996319;28;20228;-88
2021/11/20 08:41:59;;;;;;;9.43;4.17;;;12.50;99.90;;;;;;4993351;28;20215;-86
2021/11/20 08:44:26;;;;;;;6.40;4.63;;;12.50;99.90;;;;;;4994268;28;20203;-88
2021/11/20 08:46:53;;;;;;;8.13;4.50;;;12.60;99.90;;;;;;4997625;28;20230;-85
2021/11/20 08:49:20;;;;;;;6.10;3.70;;;12.60;99.90;;;;;;4995958;28;20247;-88
2021/11/20 08:51:49;;;;;;;11.17;5.23;;;12.50;99.90;;;;;;4994023;28;20238;-86
2021/11/20 08:54:16;;;;;;;6.97;4.70;;;12.60;99.90;;;;;;4986392;28;20235;-89
2021/11/20 08:56:44;;;;;;;8.27;4.90;;;12.60;99.90;;;;;;4995143;28;20202;-88
2021/11/20 08:59:13;;;;;;;6.50;4.20;;;12.60;99.90;;;;;;4995559;28;20192;-88
2021/11/20 09:01:45;;;;;;;9.83;4.40;;;12.60;99.90;;;;;;4991562;28;20231;-88
2021/11/20 09:04:30;;;;;;;14.23;5.03;;;12.60;99.90;;;;;;4996646;28;20250;-87
2021/11/20 09:07:08;;;;;;;7.87;4.73;;;12.50;99.90;;;;;;4998005;28;20215;-87
2021/11/20 09:09:37;;;;;;;6.73;4.20;;;12.50;99.90;;;;;;4996097;28;20235;-87
2021/11/20 09:12:08;;;;;;;7.10;4.97;;;12.50;99.90;;;;;;4986484;28;20234;-88
2021/11/20 09:14:44;;;;;;;7.57;5.47;;;12.60;99.90;;;;;;4992704;28;20214;-87
2021/11/20 09:17:14;;;;;;;9.50;5.37;;;12.60;99.90;;;;;;4993141;28;20191;-88
2021/11/20 09:19:43;;;;;;;5.70;4.90;;;12.60;99.90;;;;;;4994788;28;20220;-88
2021/11/20 09:22:10;;;;;;;9.67;4.30;;;12.60;99.90;;;;;;4994403;28;20222;-88
2021/11/20 09:24:41;;;;;;;5.93;3.83;;;12.50;99.90;;;;;;4995078;28;20222;-88
2021/11/20 09:27:10;;;;;;;6.80;4.00;;;12.50;99.90;;;;;;4995933;28;20228;-88
2021/11/20 09:29:36;;;;;;;8.17;3.03;;;12.50;99.90;;;;;;4994175;28;20196;-87
2021/11/20 09:32:03;;;;;;;8.67;4.53;;;12.50;99.90;;;;;;4993456;28;20203;-88
2021/11/20 09:34:28;;;;;;;8.73;3.67;;;12.50;99.90;;;;;;4993359;28;20227;-87
2021/11/20 09:36:57;;;;;;;6.07;3.60;;;12.50;99.90;;;;;;4991317;28;20512;-87
2021/11/20 09:39:26;;;;;;;14.93;4.30;;;12.50;99.90;;;;;;4993057;28;20222;-86
2021/11/20 09:42:29;;;;;;;5.10;4.40;;;12.40;99.90;;;;;;4992284;28;20251;-86
2021/11/20 09:45:00;;;;;;;6.67;5.07;;;12.40;99.90;;;;;;4993670;28;20223;-87
2021/11/20 09:47:36;;;;;;;7.60;4.50;;;12.50;99.90;;;;;;4996001;28;20680;-88
2021/11/20 09:50:31;;;;;;;12.00;5.17;;;12.40;99.90;;;;;;4993671;28;20227;-86
2021/11/20 09:52:57;;;;;;;7.07;5.40;;;12.50;99.90;;;;;;4992917;28;20227;-88
2021/11/20 09:55:28;;;;;;;7.97;5.23;;;12.50;99.90;;;;;;4992600;28;20310;-87
2021/11/20 09:58:01;;;;;;;6.83;4.10;;;12.50;99.90;;;;;;4991484;28;20219;-87
2021/11/20 10:00:32;;;;;;;5.50;3.57;;;12.50;99.90;;;;;;4992081;28;20219;-86
2021/11/20 10:03:02;;;;;;;6.03;3.50;;;12.50;99.90;;;;;;4992494;28;20263;-86
2021/11/20 10:05:33;;;;;;;5.70;4.07;;;12.50;99.90;;;;;;4992279;28;20202;-84
2021/11/20 10:08:22;;;;;;;5.80;2.93;;;12.50;99.90;;;;;;4984158;28;20698;-86
2021/11/20 10:11:08;;;;;;;5.67;3.67;;;12.50;99.90;;;;;;4990207;28;20563;-83
2021/11/20 10:13:48;;;;;;;5.13;2.90;;;12.50;99.90;;;;;;4990132;28;20255;-83
2021/11/20 10:16:23;;;;;;;11.33;4.37;;;12.60;99.90;;;;;;4998827;28;20215;-83
2021/11/20 10:18:57;;;;;;;5.40;4.60;;;12.60;99.90;;;;;;4989925;28;20219;-82
2021/11/20 10:21:57;;;;;;;7.73;4.93;;;12.50;99.90;;;;;;4990257;28;20236;-81
2021/11/20 10:24:44;;;;;;;9.57;4.93;;;12.60;99.90;;;;;;4977264;28;20246;-82
2021/11/20 10:27:36;;;;;;;5.97;3.10;;;12.60;99.90;;;;;;4999255;28;20220;-81
2021/11/20 10:30:14;;;;;;;4.33;1.97;;;12.50;99.90;;;;;;4985131;28;20223;-83
2021/11/20 10:32:49;;;;;;;9.90;4.03;;;12.50;99.90;;;;;;4989278;28;20294;-83
2021/11/20 10:35:29;;;;;;;5.53;3.70;;;12.50;99.90;;;;;;4991708;28;20290;-82
2021/11/20 10:37:55;;;;;;;7.97;4.47;;;12.50;99.90;;;;;;4990074;28;20215;-84
2021/11/20 10:40:32;;;;;;;9.27;4.80;;;12.50;99.90;;;;;;4993028;28;20409;-82
2021/11/20 10:43:04;;;;;;;3.17;2.87;;;12.50;99.90;;;;;;4999445;28;20223;-83
2021/11/20 10:45:32;;;;;;;5.80;3.70;;;12.50;99.90;;;;;;5004794;28;20232;-83
2021/11/20 10:48:06;;;;;;;8.57;4.37;;;12.50;99.90;;;;;;4988635;28;20224;-83
2021/11/20 10:50:45;;;;;;;10.27;3.77;;;12.50;99.90;;;;;;4989066;28;20187;-80
2021/11/20 10:53:26;;;;;;;3.63;3.23;;;12.40;99.90;;;;;;4993835;28;20377;-81
2021/11/20 10:56:14;;;;;;;9.70;4.67;;;12.40;99.90;;;;;;4992349;28;20360;-86
2021/11/20 10:59:02;;;;;;;6.77;3.70;;;12.40;99.90;;;;;;4993347;28;20220;-84
2021/11/20 11:02:01;;;;;;;6.13;4.87;;;12.40;99.90;;;;;;4992169;28;20270;-85
2021/11/20 11:04:36;;;;;;;6.87;3.73;;;12.40;99.90;;;;;;4999892;28;20223;-86
2021/11/20 11:07:22;;;;;;;4.50;3.13;;;12.40;99.90;;;;;;4990505;28;20261;-85
2021/11/20 11:09:54;;;;;;;15.33;5.80;;;12.40;99.90;;;;;;4992952;28;20226;-83
2021/11/20 11:12:28;;;;;;;5.77;3.80;;;12.40;99.90;;;;;;4992511;28;20685;-83
2021/11/20 11:15:03;;;;;;;8.03;4.00;;;12.40;99.90;;;;;;4995797;28;20227;-84
2021/11/20 11:17:48;;;;;;;4.87;3.63;;;12.40;99.90;;;;;;4993921;28;20223;-82
2021/11/20 11:20:44;;;;;;;6.50;5.03;;;12.40;99.90;;;;;;5007917;28;20212;-85
2021/11/20 11:23:13;;;;;;;3.97;3.50;;;12.40;99.90;;;;;;4992196;28;20283;-84
2021/11/20 11:25:50;;;;;;;4.63;3.43;;;12.40;99.90;;;;;;4993028;28;20318;-85
2021/11/20 11:28:38;;;;;;;5.70;3.67;;;12.40;99.90;;;;;;5012862;28;21006;-84
2021/11/20 11:31:31;;;;;;;6.87;5.17;;;12.40;99.90;;;;;;4995712;28;20237;-85
2021/11/20 11:34:20;;;;;;;5.80;4.27;;;12.40;99.90;;;;;;4998109;28;20274;-82
2021/11/20 11:37:23;;;;;;;6.90;4.70;;;12.40;99.90;;;;;;5005838;28;20227;-83
2021/11/20 11:40:27;;;;;;;6.13;3.23;;;12.30;99.90;;;;;;4925702;28;20784;-84
2021/11/20 11:43:18;;;;;;;5.00;3.20;;;12.30;99.90;;;;;;4894681;29;20322;-84
2021/11/20 11:45:47;;;;;;;4.80;3.60;;;12.30;99.90;;;;;;4996656;28;20294;-87
2021/11/20 11:48:15;;;;;;;4.33;3.67;;;12.20;99.90;;;;;;4998812;28;20247;-84
2021/11/20 11:50:53;;;;;;;7.80;3.77;;;12.20;99.90;;;;;;5005781;28;20196;-84
2021/11/20 11:53:37;;;;;;;8.40;4.27;;;12.20;99.90;;;;;;4998361;28;20218;-84
2021/11/20 11:56:10;;;;;;;6.30;3.57;;;12.10;99.90;;;;;;4998080;28;20238;-84
2021/11/20 11:59:15;;;;;;;4.23;3.47;;;12.10;99.90;;;;;;4999829;28;20246;-84
2021/11/20 12:02:04;;;;;;;8.00;3.63;;;12.20;99.90;;;;;;4970838;28;20223;-83
2021/11/20 12:04:29;;;;;;;11.33;4.20;;;12.20;99.90;;;;;;4997538;28;20458;-84
2021/11/20 12:07:36;;;;;;;8.70;3.07;;;12.20;99.90;;;;;;4998665;28;20677;-84
2021/11/20 12:10:21;;;;;;;8.80;3.77;;;12.20;99.90;;;;;;5003789;28;20236;-85
2021/11/20 12:13:10;;;;;;;3.57;3.27;;;12.20;99.90;;;;;;4996356;28;20236;-84
2021/11/20 12:15:49;;;;;;;7.13;3.03;;;12.20;99.90;;;;;;4995635;28;20230;-84
2021/11/20 12:18:23;;;;;;;11.13;4.00;;;12.20;99.90;;;;;;4988726;28;20219;-83
2021/11/20 12:20:57;;;;;;;5.43;3.43;;;12.30;99.90;;;;;;5011286;28;20303;-83
2021/11/20 12:23:37;;;;;;;3.73;2.43;;;12.20;99.90;;;;;;4997359;28;20198;-83
2021/11/20 12:26:33;;;;;;;3.57;2.53;;;12.20;99.90;;;;;;4994950;28;20218;-83
2021/11/20 12:29:22;;;;;;;8.60;2.77;;;12.30;99.90;;;;;;4995969;28;20559;-85
2021/11/20 12:32:06;;;;;;;4.30;2.63;;;12.30;99.90;;;;;;4995603;28;20226;-85
2021/11/20 12:34:52;;;;;;;4.67;3.90;;;12.20;99.90;;;;;;4998449;28;20719;-84
2021/11/20 12:37:55;;;;;;;1.50;1.40;;;12.20;99.90;;;;;;4996644;28;20219;-80
2021/11/20 12:40:53;;;;;;;4.17;2.60;;;12.20;99.90;;;;;;5008421;28;20362;-84
2021/11/20 12:43:42;;;;;;;8.63;3.77;;;12.20;99.90;;;;;;4984417;28;20228;-82
2021/11/20 12:46:28;;;;;;;5.43;3.97;;;12.20;99.90;;;;;;5004714;28;20685;-83
2021/11/20 12:49:25;;;;;;;4.47;1.73;;;12.20;99.90;;;;;;4993394;28;20269;-81
2021/11/20 12:52:03;;;;;;;5.60;3.30;;;12.10;99.90;;;;;;5011720;28;20228;-82
2021/11/20 12:54:47;;;;;;;5.23;3.03;;;12.10;99.90;;;;;;4997593;28;20235;-83
2021/11/20 12:57:16;;;;;;;2.10;1.83;;;12.00;99.90;;;;;;4997320;28;20223;-83
2021/11/20 12:59:49;;;;;;;6.93;2.43;;;11.90;99.90;;;;;;4994790;28;20216;-83
2021/11/20 13:02:34;;;;;;;7.97;3.17;;;11.90;99.90;;;;;;4994182;28;20306;-83
2021/11/20 13:05:14;;;;;;;7.00;2.40;;;11.90;99.90;;;;;;5017070;28;20219;-81
2021/11/20 13:07:51;;;;;;;6.37;2.03;;;11.90;99.90;;;;;;4995884;28;20242;-81
2021/11/20 13:10:36;;;;;;;4.40;3.40;;;11.90;99.90;;;;;;4993471;28;20232;-80
2021/11/20 13:13:23;;;;;;;6.03;3.53;;;12.00;99.90;;;;;;4995498;28;20250;-82